sensor_id;sensor_type;location;lat;lon;timestamp;P1;durP1;ratioP1;P2;durP2;ratioP2
787;SDS011;16074;42.708;23.312;2022-10-20T00:01:25;25.10;;;22.47;;
787;SDS011;16074;42.708;23.312;2022-10-20T00:03:54;24.03;;;21.43;;
787;SDS011;16074;42.708;23.312;2022-10-20T00:06:24;26.00;;;23.30;;
787;SDS011;16074;42.708;23.312;2022-10-20T00:08:54;25.00;;;22.45;;
787;SDS011;16074;42.708;23.312;2022-10-20T00:11:25;25.90;;;22.55;;
787;SDS011;16074;42.708;23.312;2022-10-20T00:13:54;23.63;;;21.23;;
787;SDS011;16074;42.708;23.312;2022-10-20T00:16:24;23.50;;;21.07;;
787;SDS011;16074;42.708;23.312;2022-10-20T00:18:54;28.75;;;24.10;;
787;SDS011;16074;42.708;23.312;2022-10-20T00:21:23;29.30;;;23.15;;
787;SDS011;16074;42.708;23.312;2022-10-20T00:23:53;23.50;;;21.10;;
787;SDS011;16074;42.708;23.312;2022-10-20T00:26:22;22.77;;;20.50;;
787;SDS011;16074;42.708;23.312;2022-10-20T00:28:54;23.40;;;21.05;;
787;SDS011;16074;42.708;23.312;2022-10-20T00:31:22;22.38;;;20.17;;
787;SDS011;16074;42.708;23.312;2022-10-20T00:33:52;22.83;;;20.43;;
787;SDS011;16074;42.708;23.312;2022-10-20T00:36:20;21.50;;;19.30;;
787;SDS011;16074;42.708;23.312;2022-10-20T00:38:49;21.10;;;19.10;;
787;SDS011;16074;42.708;23.312;2022-10-20T00:41:19;21.00;;;18.60;;
787;SDS011;16074;42.708;23.312;2022-10-20T00:43:49;23.90;;;19.70;;
787;SDS011;16074;42.708;23.312;2022-10-20T00:46:20;20.40;;;18.50;;
787;SDS011;16074;42.708;23.312;2022-10-20T00:48:51;20.50;;;18.40;;
787;SDS011;16074;42.708;23.312;2022-10-20T00:51:24;18.67;;;16.77;;
787;SDS011;16074;42.708;23.312;2022-10-20T00:53:55;19.05;;;17.08;;
787;SDS011;16074;42.708;23.312;2022-10-20T00:56:26;17.63;;;16.00;;
787;SDS011;16074;42.708;23.312;2022-10-20T00:58:56;17.45;;;15.77;;
787;SDS011;16074;42.708;23.312;2022-10-20T01:01:24;17.80;;;16.00;;
787;SDS011;16074;42.708;23.312;2022-10-20T01:03:53;18.05;;;16.15;;
787;SDS011;16074;42.708;23.312;2022-10-20T01:06:21;15.98;;;14.48;;
787;SDS011;16074;42.708;23.312;2022-10-20T01:08:50;18.17;;;16.23;;
787;SDS011;16074;42.708;23.312;2022-10-20T01:11:24;15.48;;;14.02;;
787;SDS011;16074;42.708;23.312;2022-10-20T01:14:07;20.70;;;16.55;;
787;SDS011;16074;42.708;23.312;2022-10-20T01:16:50;16.95;;;15.35;;
787;SDS011;16074;42.708;23.312;2022-10-20T01:19:32;16.70;;;15.00;;
787;SDS011;16074;42.708;23.312;2022-10-20T01:22:24;16.90;;;15.02;;
787;SDS011;16074;42.708;23.312;2022-10-20T01:25:12;15.27;;;13.70;;
787;SDS011;16074;42.708;23.312;2022-10-20T01:27:46;16.58;;;14.98;;
787;SDS011;16074;42.708;23.312;2022-10-20T01:30:19;13.70;;;12.50;;
787;SDS011;16074;42.708;23.312;2022-10-20T01:33:07;16.50;;;14.70;;
787;SDS011;16074;42.708;23.312;2022-10-20T01:35:42;17.80;;;15.88;;
787;SDS011;16074;42.708;23.312;2022-10-20T01:38:21;15.55;;;14.18;;
787;SDS011;16074;42.708;23.312;2022-10-20T01:40:56;15.13;;;13.60;;
787;SDS011;16074;42.708;23.312;2022-10-20T01:43:31;15.57;;;14.10;;
787;SDS011;16074;42.708;23.312;2022-10-20T01:46:03;16.25;;;14.18;;
787;SDS011;16074;42.708;23.312;2022-10-20T01:48:34;15.75;;;14.10;;
787;SDS011;16074;42.708;23.312;2022-10-20T01:51:03;15.95;;;14.30;;
787;SDS011;16074;42.708;23.312;2022-10-20T01:53:31;14.95;;;13.55;;
787;SDS011;16074;42.708;23.312;2022-10-20T01:56:00;16.83;;;14.43;;
787;SDS011;16074;42.708;23.312;2022-10-20T02:02:01;16.95;;;15.43;;
787;SDS011;16074;42.708;23.312;2022-10-20T02:04:43;16.60;;;15.00;;
787;SDS011;16074;42.708;23.312;2022-10-20T02:07:22;17.40;;;14.73;;
787;SDS011;16074;42.708;23.312;2022-10-20T02:09:54;15.85;;;14.25;;
787;SDS011;16074;42.708;23.312;2022-10-20T02:12:31;15.90;;;14.10;;
787;SDS011;16074;42.708;23.312;2022-10-20T02:15:02;15.68;;;14.15;;
787;SDS011;16074;42.708;23.312;2022-10-20T02:17:34;17.10;;;15.25;;
787;SDS011;16074;42.708;23.312;2022-10-20T02:20:06;19.00;;;15.00;;
787;SDS011;16074;42.708;23.312;2022-10-20T02:22:36;16.58;;;14.98;;
787;SDS011;16074;42.708;23.312;2022-10-20T02:25:08;17.58;;;15.75;;
787;SDS011;16074;42.708;23.312;2022-10-20T02:27:38;20.95;;;16.55;;
787;SDS011;16074;42.708;23.312;2022-10-20T02:30:10;17.98;;;14.50;;
787;SDS011;16074;42.708;23.312;2022-10-20T02:32:42;16.83;;;15.13;;
787;SDS011;16074;42.708;23.312;2022-10-20T02:35:16;15.68;;;14.00;;
787;SDS011;16074;42.708;23.312;2022-10-20T02:37:45;15.63;;;14.10;;
787;SDS011;16074;42.708;23.312;2022-10-20T02:40:14;15.98;;;14.38;;
787;SDS011;16074;42.708;23.312;2022-10-20T02:42:43;19.40;;;14.65;;
787;SDS011;16074;42.708;23.312;2022-10-20T02:45:11;15.32;;;13.82;;
787;SDS011;16074;42.708;23.312;2022-10-20T02:47:39;16.60;;;14.93;;
787;SDS011;16074;42.708;23.312;2022-10-20T02:50:09;16.88;;;15.18;;
787;SDS011;16074;42.708;23.312;2022-10-20T02:52:37;16.52;;;14.80;;
787;SDS011;16074;42.708;23.312;2022-10-20T02:55:06;17.67;;;15.77;;
787;SDS011;16074;42.708;23.312;2022-10-20T02:57:35;17.35;;;15.57;;
787;SDS011;16074;42.708;23.312;2022-10-20T03:00:04;16.10;;;14.40;;
787;SDS011;16074;42.708;23.312;2022-10-20T03:02:33;17.00;;;15.30;;
787;SDS011;16074;42.708;23.312;2022-10-20T03:05:01;16.50;;;14.80;;
787;SDS011;16074;42.708;23.312;2022-10-20T03:07:31;15.77;;;14.13;;
787;SDS011;16074;42.708;23.312;2022-10-20T03:10:00;19.20;;;15.77;;
787;SDS011;16074;42.708;23.312;2022-10-20T03:12:28;17.75;;;14.88;;
787;SDS011;16074;42.708;23.312;2022-10-20T03:14:57;16.48;;;14.88;;
787;SDS011;16074;42.708;23.312;2022-10-20T03:17:26;15.75;;;14.13;;
787;SDS011;16074;42.708;23.312;2022-10-20T03:19:54;15.98;;;14.40;;
787;SDS011;16074;42.708;23.312;2022-10-20T03:22:22;17.48;;;13.52;;
787;SDS011;16074;42.708;23.312;2022-10-20T03:24:52;16.67;;;13.63;;
787;SDS011;16074;42.708;23.312;2022-10-20T03:27:20;18.50;;;15.23;;
787;SDS011;16074;42.708;23.312;2022-10-20T03:29:48;16.48;;;14.60;;
787;SDS011;16074;42.708;23.312;2022-10-20T03:32:16;16.73;;;14.40;;
787;SDS011;16074;42.708;23.312;2022-10-20T03:34:44;19.15;;;15.00;;
787;SDS011;16074;42.708;23.312;2022-10-20T03:37:12;16.35;;;14.60;;
787;SDS011;16074;42.708;23.312;2022-10-20T03:39:41;18.27;;;16.25;;
787;SDS011;16074;42.708;23.312;2022-10-20T03:42:10;16.35;;;14.68;;
787;SDS011;16074;42.708;23.312;2022-10-20T03:44:39;19.98;;;15.57;;
787;SDS011;16074;42.708;23.312;2022-10-20T03:47:07;19.35;;;15.38;;
787;SDS011;16074;42.708;23.312;2022-10-20T03:49:35;17.35;;;15.55;;
787;SDS011;16074;42.708;23.312;2022-10-20T03:52:03;17.48;;;15.55;;
787;SDS011;16074;42.708;23.312;2022-10-20T03:54:33;19.00;;;16.40;;
787;SDS011;16074;42.708;23.312;2022-10-20T03:57:02;19.98;;;15.80;;
787;SDS011;16074;42.708;23.312;2022-10-20T03:59:34;17.90;;;16.02;;
787;SDS011;16074;42.708;23.312;2022-10-20T04:02:03;18.27;;;16.42;;
787;SDS011;16074;42.708;23.312;2022-10-20T04:04:31;16.80;;;15.13;;
787;SDS011;16074;42.708;23.312;2022-10-20T04:06:59;20.73;;;15.88;;
787;SDS011;16074;42.708;23.312;2022-10-20T04:09:27;18.73;;;15.40;;
787;SDS011;16074;42.708;23.312;2022-10-20T04:11:55;18.35;;;16.52;;
787;SDS011;16074;42.708;23.312;2022-10-20T04:14:24;17.08;;;15.20;;
787;SDS011;16074;42.708;23.312;2022-10-20T04:16:53;15.63;;;14.02;;
787;SDS011;16074;42.708;23.312;2022-10-20T04:19:21;16.92;;;13.95;;
787;SDS011;16074;42.708;23.312;2022-10-20T04:21:49;18.45;;;15.35;;
787;SDS011;16074;42.708;23.312;2022-10-20T04:24:18;14.80;;;13.27;;
787;SDS011;16074;42.708;23.312;2022-10-20T04:26:46;16.70;;;14.68;;
787;SDS011;16074;42.708;23.312;2022-10-20T04:29:20;15.95;;;14.35;;
787;SDS011;16074;42.708;23.312;2022-10-20T04:31:48;17.15;;;14.25;;
787;SDS011;16074;42.708;23.312;2022-10-20T04:34:18;15.40;;;13.80;;
787;SDS011;16074;42.708;23.312;2022-10-20T04:36:46;15.13;;;13.63;;
787;SDS011;16074;42.708;23.312;2022-10-20T04:39:14;17.15;;;13.98;;
787;SDS011;16074;42.708;23.312;2022-10-20T04:41:43;15.40;;;13.80;;
787;SDS011;16074;42.708;23.312;2022-10-20T04:44:11;15.52;;;13.75;;
787;SDS011;16074;42.708;23.312;2022-10-20T04:46:40;15.43;;;13.60;;
787;SDS011;16074;42.708;23.312;2022-10-20T04:49:08;17.58;;;15.00;;
787;SDS011;16074;42.708;23.312;2022-10-20T04:51:38;17.50;;;14.20;;
787;SDS011;16074;42.708;23.312;2022-10-20T04:54:06;16.65;;;14.95;;
787;SDS011;16074;42.708;23.312;2022-10-20T04:56:34;18.35;;;15.73;;
787;SDS011;16074;42.708;23.312;2022-10-20T04:59:02;16.73;;;15.02;;
787;SDS011;16074;42.708;23.312;2022-10-20T05:01:36;19.52;;;15.27;;
787;SDS011;16074;42.708;23.312;2022-10-20T05:04:05;18.98;;;15.50;;
787;SDS011;16074;42.708;23.312;2022-10-20T05:06:34;18.27;;;15.88;;
787;SDS011;16074;42.708;23.312;2022-10-20T05:09:04;21.77;;;19.20;;
787;SDS011;16074;42.708;23.312;2022-10-20T05:11:35;22.38;;;17.05;;
787;SDS011;16074;42.708;23.312;2022-10-20T05:14:03;26.70;;;19.02;;
787;SDS011;16074;42.708;23.312;2022-10-20T05:16:32;27.60;;;23.00;;
787;SDS011;16074;42.708;23.312;2022-10-20T05:19:00;43.67;;;34.70;;
787;SDS011;16074;42.708;23.312;2022-10-20T05:21:29;84.75;;;50.55;;
787;SDS011;16074;42.708;23.312;2022-10-20T05:23:59;70.05;;;43.85;;
787;SDS011;16074;42.708;23.312;2022-10-20T05:26:30;39.30;;;26.13;;
787;SDS011;16074;42.708;23.312;2022-10-20T05:29:03;25.38;;;19.75;;
787;SDS011;16074;42.708;23.312;2022-10-20T05:31:34;33.00;;;22.90;;
787;SDS011;16074;42.708;23.312;2022-10-20T05:34:03;30.45;;;23.50;;
787;SDS011;16074;42.708;23.312;2022-10-20T05:36:32;24.58;;;21.30;;
787;SDS011;16074;42.708;23.312;2022-10-20T05:39:00;21.17;;;17.38;;
787;SDS011;16074;42.708;23.312;2022-10-20T05:41:31;27.75;;;18.73;;
787;SDS011;16074;42.708;23.312;2022-10-20T05:44:04;18.77;;;15.88;;
787;SDS011;16074;42.708;23.312;2022-10-20T05:46:35;24.10;;;19.98;;
787;SDS011;16074;42.708;23.312;2022-10-20T05:49:09;22.02;;;18.85;;
787;SDS011;16074;42.708;23.312;2022-10-20T05:51:39;34.30;;;22.75;;
787;SDS011;16074;42.708;23.312;2022-10-20T05:54:08;27.25;;;22.08;;
787;SDS011;16074;42.708;23.312;2022-10-20T05:56:40;31.73;;;23.92;;
787;SDS011;16074;42.708;23.312;2022-10-20T05:59:08;32.20;;;24.05;;
787;SDS011;16074;42.708;23.312;2022-10-20T06:01:39;40.90;;;30.98;;
787;SDS011;16074;42.708;23.312;2022-10-20T06:04:15;37.08;;;28.70;;
787;SDS011;16074;42.708;23.312;2022-10-20T06:06:44;27.85;;;22.30;;
787;SDS011;16074;42.708;23.312;2022-10-20T06:09:14;19.13;;;17.27;;
787;SDS011;16074;42.708;23.312;2022-10-20T06:11:44;17.40;;;15.70;;
787;SDS011;16074;42.708;23.312;2022-10-20T06:14:13;16.65;;;15.05;;
787;SDS011;16074;42.708;23.312;2022-10-20T06:16:43;19.33;;;16.38;;
787;SDS011;16074;42.708;23.312;2022-10-20T06:19:11;16.50;;;14.73;;
787;SDS011;16074;42.708;23.312;2022-10-20T06:21:39;18.33;;;16.15;;
787;SDS011;16074;42.708;23.312;2022-10-20T06:24:08;18.13;;;16.38;;
787;SDS011;16074;42.708;23.312;2022-10-20T06:26:37;18.35;;;16.45;;
787;SDS011;16074;42.708;23.312;2022-10-20T06:29:09;22.88;;;18.95;;
787;SDS011;16074;42.708;23.312;2022-10-20T06:31:39;19.73;;;17.63;;
787;SDS011;16074;42.708;23.312;2022-10-20T06:34:09;18.13;;;16.25;;
787;SDS011;16074;42.708;23.312;2022-10-20T06:36:40;39.17;;;30.83;;
787;SDS011;16074;42.708;23.312;2022-10-20T06:39:10;24.17;;;21.00;;
787;SDS011;16074;42.708;23.312;2022-10-20T06:41:40;20.90;;;17.77;;
787;SDS011;16074;42.708;23.312;2022-10-20T06:44:18;20.17;;;17.87;;
787;SDS011;16074;42.708;23.312;2022-10-20T06:46:47;17.97;;;16.27;;
787;SDS011;16074;42.708;23.312;2022-10-20T06:49:18;18.00;;;15.50;;
787;SDS011;16074;42.708;23.312;2022-10-20T06:51:46;21.13;;;17.30;;
787;SDS011;16074;42.708;23.312;2022-10-20T06:54:14;19.13;;;16.97;;
787;SDS011;16074;42.708;23.312;2022-10-20T06:56:43;17.80;;;16.00;;
787;SDS011;16074;42.708;23.312;2022-10-20T06:59:11;18.20;;;14.97;;
787;SDS011;16074;42.708;23.312;2022-10-20T07:01:41;15.30;;;13.90;;
787;SDS011;16074;42.708;23.312;2022-10-20T07:04:10;18.13;;;16.20;;
787;SDS011;16074;42.708;23.312;2022-10-20T07:06:41;16.10;;;14.10;;
787;SDS011;16074;42.708;23.312;2022-10-20T07:09:11;16.33;;;14.73;;
787;SDS011;16074;42.708;23.312;2022-10-20T07:11:41;15.80;;;13.93;;
787;SDS011;16074;42.708;23.312;2022-10-20T07:14:10;15.87;;;14.37;;
787;SDS011;16074;42.708;23.312;2022-10-20T07:16:41;16.33;;;14.63;;
787;SDS011;16074;42.708;23.312;2022-10-20T07:19:09;17.53;;;14.80;;
787;SDS011;16074;42.708;23.312;2022-10-20T07:21:37;17.47;;;12.83;;
787;SDS011;16074;42.708;23.312;2022-10-20T07:24:10;17.07;;;13.40;;
787;SDS011;16074;42.708;23.312;2022-10-20T07:26:39;15.17;;;13.67;;
787;SDS011;16074;42.708;23.312;2022-10-20T07:29:08;15.03;;;13.63;;
787;SDS011;16074;42.708;23.312;2022-10-20T07:31:38;17.23;;;14.90;;
787;SDS011;16074;42.708;23.312;2022-10-20T07:34:09;16.63;;;14.37;;
787;SDS011;16074;42.708;23.312;2022-10-20T07:36:51;14.67;;;13.20;;
787;SDS011;16074;42.708;23.312;2022-10-20T07:39:20;15.87;;;14.13;;
787;SDS011;16074;42.708;23.312;2022-10-20T07:41:48;16.83;;;13.60;;
787;SDS011;16074;42.708;23.312;2022-10-20T07:44:17;15.77;;;14.37;;
787;SDS011;16074;42.708;23.312;2022-10-20T07:46:45;14.70;;;13.30;;
787;SDS011;16074;42.708;23.312;2022-10-20T07:49:15;16.73;;;13.30;;
787;SDS011;16074;42.708;23.312;2022-10-20T07:52:03;14.40;;;12.23;;
787;SDS011;16074;42.708;23.312;2022-10-20T07:54:32;14.60;;;13.20;;
787;SDS011;16074;42.708;23.312;2022-10-20T07:57:00;14.10;;;12.80;;
787;SDS011;16074;42.708;23.312;2022-10-20T07:59:29;15.07;;;13.10;;
787;SDS011;16074;42.708;23.312;2022-10-20T08:01:57;13.97;;;12.43;;
787;SDS011;16074;42.708;23.312;2022-10-20T08:04:27;12.50;;;11.30;;
787;SDS011;16074;42.708;23.312;2022-10-20T08:06:57;13.93;;;12.50;;
787;SDS011;16074;42.708;23.312;2022-10-20T08:09:26;14.50;;;12.53;;
787;SDS011;16074;42.708;23.312;2022-10-20T08:11:54;14.30;;;12.77;;
787;SDS011;16074;42.708;23.312;2022-10-20T08:14:23;13.20;;;11.37;;
787;SDS011;16074;42.708;23.312;2022-10-20T08:16:53;13.93;;;12.17;;
787;SDS011;16074;42.708;23.312;2022-10-20T08:19:21;12.27;;;11.10;;
787;SDS011;16074;42.708;23.312;2022-10-20T08:22:04;14.33;;;12.80;;
787;SDS011;16074;42.708;23.312;2022-10-20T08:24:33;13.07;;;11.17;;
787;SDS011;16074;42.708;23.312;2022-10-20T08:27:01;10.90;;;10.00;;
787;SDS011;16074;42.708;23.312;2022-10-20T08:29:29;13.10;;;11.77;;
787;SDS011;16074;42.708;23.312;2022-10-20T08:31:57;11.83;;;10.73;;
787;SDS011;16074;42.708;23.312;2022-10-20T08:34:26;15.40;;;10.33;;
787;SDS011;16074;42.708;23.312;2022-10-20T08:36:54;13.53;;;9.07;;
787;SDS011;16074;42.708;23.312;2022-10-20T08:39:23;9.10;;;8.30;;
787;SDS011;16074;42.708;23.312;2022-10-20T08:41:51;10.43;;;8.20;;
787;SDS011;16074;42.708;23.312;2022-10-20T08:44:34;8.80;;;8.00;;
787;SDS011;16074;42.708;23.312;2022-10-20T08:47:04;11.00;;;7.80;;
787;SDS011;16074;42.708;23.312;2022-10-20T08:49:43;8.93;;;8.10;;
787;SDS011;16074;42.708;23.312;2022-10-20T08:52:12;8.20;;;7.40;;
787;SDS011;16074;42.708;23.312;2022-10-20T08:54:43;14.17;;;7.77;;
787;SDS011;16074;42.708;23.312;2022-10-20T08:57:14;9.53;;;8.37;;
787;SDS011;16074;42.708;23.312;2022-10-20T08:59:49;8.67;;;7.67;;
787;SDS011;16074;42.708;23.312;2022-10-20T09:02:19;8.00;;;7.30;;
787;SDS011;16074;42.708;23.312;2022-10-20T09:04:48;6.90;;;6.30;;
787;SDS011;16074;42.708;23.312;2022-10-20T09:07:21;6.90;;;6.40;;
787;SDS011;16074;42.708;23.312;2022-10-20T09:09:56;6.60;;;6.10;;
787;SDS011;16074;42.708;23.312;2022-10-20T09:12:31;7.23;;;6.63;;
787;SDS011;16074;42.708;23.312;2022-10-20T09:15:00;6.63;;;6.13;;
787;SDS011;16074;42.708;23.312;2022-10-20T09:17:29;7.80;;;7.23;;
787;SDS011;16074;42.708;23.312;2022-10-20T09:19:58;6.47;;;5.90;;
787;SDS011;16074;42.708;23.312;2022-10-20T09:22:28;6.50;;;5.90;;
787;SDS011;16074;42.708;23.312;2022-10-20T09:25:03;6.90;;;6.40;;
787;SDS011;16074;42.708;23.312;2022-10-20T09:27:32;6.67;;;6.07;;
787;SDS011;16074;42.708;23.312;2022-10-20T09:32:51;5.90;;;5.40;;
787;SDS011;16074;42.708;23.312;2022-10-20T09:35:21;5.40;;;5.00;;
787;SDS011;16074;42.708;23.312;2022-10-20T09:37:59;5.40;;;5.10;;
787;SDS011;16074;42.708;23.312;2022-10-20T09:40:31;5.70;;;5.27;;
787;SDS011;16074;42.708;23.312;2022-10-20T09:43:00;5.23;;;4.83;;
787;SDS011;16074;42.708;23.312;2022-10-20T09:45:35;6.13;;;5.53;;
787;SDS011;16074;42.708;23.312;2022-10-20T09:48:14;6.97;;;6.37;;
787;SDS011;16074;42.708;23.312;2022-10-20T09:50:48;5.57;;;5.07;;
787;SDS011;16074;42.708;23.312;2022-10-20T09:53:21;5.60;;;5.10;;
787;SDS011;16074;42.708;23.312;2022-10-20T09:55:54;5.27;;;4.87;;
787;SDS011;16074;42.708;23.312;2022-10-20T09:58:23;5.40;;;5.00;;
787;SDS011;16074;42.708;23.312;2022-10-20T10:00:57;5.80;;;5.33;;
787;SDS011;16074;42.708;23.312;2022-10-20T10:03:28;4.90;;;4.60;;
787;SDS011;16074;42.708;23.312;2022-10-20T10:06:18;5.33;;;5.03;;
787;SDS011;16074;42.708;23.312;2022-10-20T10:08:48;5.97;;;5.47;;
787;SDS011;16074;42.708;23.312;2022-10-20T10:11:18;4.93;;;4.53;;
787;SDS011;16074;42.708;23.312;2022-10-20T10:13:49;4.67;;;4.33;;
787;SDS011;16074;42.708;23.312;2022-10-20T10:16:18;5.20;;;4.83;;
787;SDS011;16074;42.708;23.312;2022-10-20T10:18:56;5.67;;;5.17;;
787;SDS011;16074;42.708;23.312;2022-10-20T10:21:28;5.27;;;4.87;;
787;SDS011;16074;42.708;23.312;2022-10-20T10:23:58;5.67;;;5.03;;
787;SDS011;16074;42.708;23.312;2022-10-20T10:26:50;5.40;;;4.97;;
787;SDS011;16074;42.708;23.312;2022-10-20T10:29:23;5.07;;;4.67;;
787;SDS011;16074;42.708;23.312;2022-10-20T10:31:57;5.20;;;4.80;;
787;SDS011;16074;42.708;23.312;2022-10-20T10:34:41;4.37;;;4.07;;
787;SDS011;16074;42.708;23.312;2022-10-20T10:37:17;4.47;;;4.20;;
787;SDS011;16074;42.708;23.312;2022-10-20T10:39:46;5.30;;;4.90;;
787;SDS011;16074;42.708;23.312;2022-10-20T10:42:26;5.10;;;4.70;;
787;SDS011;16074;42.708;23.312;2022-10-20T10:45:12;5.10;;;4.70;;
787;SDS011;16074;42.708;23.312;2022-10-20T10:48:04;4.97;;;4.60;;
787;SDS011;16074;42.708;23.312;2022-10-20T10:50:51;4.97;;;4.53;;
787;SDS011;16074;42.708;23.312;2022-10-20T10:53:26;4.40;;;4.10;;
787;SDS011;16074;42.708;23.312;2022-10-20T10:56:12;4.70;;;4.40;;
787;SDS011;16074;42.708;23.312;2022-10-20T10:58:51;5.13;;;4.47;;
787;SDS011;16074;42.708;23.312;2022-10-20T11:01:28;5.03;;;4.63;;
787;SDS011;16074;42.708;23.312;2022-10-20T11:04:27;7.03;;;5.70;;
787;SDS011;16074;42.708;23.312;2022-10-20T11:07:08;4.70;;;4.40;;
787;SDS011;16074;42.708;23.312;2022-10-20T11:09:48;5.10;;;4.70;;
787;SDS011;16074;42.708;23.312;2022-10-20T11:12:28;5.00;;;4.70;;
787;SDS011;16074;42.708;23.312;2022-10-20T11:15:19;4.87;;;4.57;;
787;SDS011;16074;42.708;23.312;2022-10-20T11:17:59;5.20;;;4.77;;
787;SDS011;16074;42.708;23.312;2022-10-20T11:20:38;5.63;;;5.13;;
787;SDS011;16074;42.708;23.312;2022-10-20T11:23:19;5.50;;;5.00;;
787;SDS011;16074;42.708;23.312;2022-10-20T11:25:54;4.90;;;4.60;;
787;SDS011;16074;42.708;23.312;2022-10-20T11:28:32;4.40;;;4.10;;
787;SDS011;16074;42.708;23.312;2022-10-20T11:31:15;5.20;;;4.90;;
787;SDS011;16074;42.708;23.312;2022-10-20T11:33:50;5.23;;;4.93;;
787;SDS011;16074;42.708;23.312;2022-10-20T11:36:28;8.10;;;7.03;;
787;SDS011;16074;42.708;23.312;2022-10-20T11:39:02;5.00;;;4.60;;
787;SDS011;16074;42.708;23.312;2022-10-20T11:41:33;4.93;;;4.53;;
787;SDS011;16074;42.708;23.312;2022-10-20T11:44:09;4.83;;;4.53;;
787;SDS011;16074;42.708;23.312;2022-10-20T11:46:43;4.40;;;4.20;;
787;SDS011;16074;42.708;23.312;2022-10-20T11:49:15;4.77;;;4.47;;
787;SDS011;16074;42.708;23.312;2022-10-20T11:54:59;5.20;;;4.80;;
787;SDS011;16074;42.708;23.312;2022-10-20T11:57:57;4.50;;;4.00;;
787;SDS011;16074;42.708;23.312;2022-10-20T12:00:41;4.20;;;3.90;;
787;SDS011;16074;42.708;23.312;2022-10-20T12:03:33;5.33;;;4.93;;
787;SDS011;16074;42.708;23.312;2022-10-20T12:06:30;4.50;;;4.20;;
787;SDS011;16074;42.708;23.312;2022-10-20T12:12:18;4.60;;;4.30;;
787;SDS011;16074;42.708;23.312;2022-10-20T12:14:53;5.00;;;4.63;;
787;SDS011;16074;42.708;23.312;2022-10-20T12:17:32;4.83;;;4.53;;
787;SDS011;16074;42.708;23.312;2022-10-20T12:26:36;6.70;;;6.20;;
787;SDS011;16074;42.708;23.312;2022-10-20T12:38:24;5.17;;;4.87;;
787;SDS011;16074;42.708;23.312;2022-10-20T12:40:56;6.13;;;5.60;;
787;SDS011;16074;42.708;23.312;2022-10-20T12:43:44;5.43;;;4.87;;
787;SDS011;16074;42.708;23.312;2022-10-20T12:46:20;5.00;;;4.70;;
787;SDS011;16074;42.708;23.312;2022-10-20T12:48:53;5.40;;;4.90;;
787;SDS011;16074;42.708;23.312;2022-10-20T12:51:29;5.50;;;5.07;;
787;SDS011;16074;42.708;23.312;2022-10-20T12:54:03;4.00;;;3.80;;
787;SDS011;16074;42.708;23.312;2022-10-20T12:56:42;4.27;;;4.00;;
787;SDS011;16074;42.708;23.312;2022-10-20T12:59:22;4.90;;;4.60;;
787;SDS011;16074;42.708;23.312;2022-10-20T13:08:21;4.70;;;4.37;;
787;SDS011;16074;42.708;23.312;2022-10-20T13:10:55;5.00;;;4.70;;
787;SDS011;16074;42.708;23.312;2022-10-20T13:13:49;4.93;;;4.43;;
787;SDS011;16074;42.708;23.312;2022-10-20T13:16:29;5.20;;;4.53;;
787;SDS011;16074;42.708;23.312;2022-10-20T13:18:59;4.33;;;4.10;;
787;SDS011;16074;42.708;23.312;2022-10-20T13:21:29;5.10;;;4.70;;
787;SDS011;16074;42.708;23.312;2022-10-20T13:24:03;4.60;;;4.37;;
787;SDS011;16074;42.708;23.312;2022-10-20T13:26:44;4.63;;;4.23;;
787;SDS011;16074;42.708;23.312;2022-10-20T13:29:21;4.67;;;4.30;;
787;SDS011;16074;42.708;23.312;2022-10-20T13:31:57;4.70;;;4.33;;
787;SDS011;16074;42.708;23.312;2022-10-20T13:34:42;4.40;;;4.00;;
787;SDS011;16074;42.708;23.312;2022-10-20T13:37:28;4.30;;;4.00;;
787;SDS011;16074;42.708;23.312;2022-10-20T13:40:14;4.50;;;4.20;;
787;SDS011;16074;42.708;23.312;2022-10-20T13:42:59;4.47;;;4.10;;
787;SDS011;16074;42.708;23.312;2022-10-20T13:45:46;4.97;;;4.57;;
787;SDS011;16074;42.708;23.312;2022-10-20T13:48:31;4.17;;;3.87;;
787;SDS011;16074;42.708;23.312;2022-10-20T13:51:12;4.43;;;4.13;;
787;SDS011;16074;42.708;23.312;2022-10-20T13:53:47;4.33;;;4.03;;
787;SDS011;16074;42.708;23.312;2022-10-20T13:56:18;5.40;;;5.00;;
787;SDS011;16074;42.708;23.312;2022-10-20T13:58:56;4.50;;;4.20;;
787;SDS011;16074;42.708;23.312;2022-10-20T14:01:33;3.83;;;3.63;;
787;SDS011;16074;42.708;23.312;2022-10-20T14:04:13;4.20;;;4.00;;
787;SDS011;16074;42.708;23.312;2022-10-20T14:06:50;5.07;;;3.80;;
787;SDS011;16074;42.708;23.312;2022-10-20T14:09:19;5.30;;;4.90;;
787;SDS011;16074;42.708;23.312;2022-10-20T14:11:49;4.80;;;4.40;;
787;SDS011;16074;42.708;23.312;2022-10-20T14:14:20;4.27;;;3.97;;
787;SDS011;16074;42.708;23.312;2022-10-20T14:16:53;4.37;;;3.97;;
787;SDS011;16074;42.708;23.312;2022-10-20T14:19:24;3.80;;;3.60;;
787;SDS011;16074;42.708;23.312;2022-10-20T14:21:54;5.70;;;4.40;;
787;SDS011;16074;42.708;23.312;2022-10-20T14:24:25;4.60;;;4.17;;
787;SDS011;16074;42.708;23.312;2022-10-20T14:26:58;5.20;;;4.80;;
787;SDS011;16074;42.708;23.312;2022-10-20T14:29:29;5.50;;;4.87;;
787;SDS011;16074;42.708;23.312;2022-10-20T14:32:03;4.57;;;4.03;;
787;SDS011;16074;42.708;23.312;2022-10-20T14:34:33;6.13;;;3.80;;
787;SDS011;16074;42.708;23.312;2022-10-20T14:37:02;4.10;;;3.80;;
787;SDS011;16074;42.708;23.312;2022-10-20T14:39:35;4.63;;;4.33;;
787;SDS011;16074;42.708;23.312;2022-10-20T14:42:13;4.90;;;4.50;;
787;SDS011;16074;42.708;23.312;2022-10-20T14:44:48;5.27;;;4.87;;
787;SDS011;16074;42.708;23.312;2022-10-20T14:47:19;4.63;;;4.23;;
787;SDS011;16074;42.708;23.312;2022-10-20T14:49:48;4.53;;;4.13;;
787;SDS011;16074;42.708;23.312;2022-10-20T14:52:20;5.30;;;4.50;;
787;SDS011;16074;42.708;23.312;2022-10-20T14:54:50;5.00;;;4.70;;
787;SDS011;16074;42.708;23.312;2022-10-20T14:57:29;4.80;;;4.50;;
787;SDS011;16074;42.708;23.312;2022-10-20T15:02:56;5.37;;;4.90;;
787;SDS011;16074;42.708;23.312;2022-10-20T15:05:31;4.97;;;4.60;;
787;SDS011;16074;42.708;23.312;2022-10-20T15:08:06;6.10;;;5.60;;
787;SDS011;16074;42.708;23.312;2022-10-20T15:10:37;8.30;;;5.13;;
787;SDS011;16074;42.708;23.312;2022-10-20T15:13:16;5.67;;;5.17;;
787;SDS011;16074;42.708;23.312;2022-10-20T15:15:53;5.83;;;5.23;;
787;SDS011;16074;42.708;23.312;2022-10-20T15:18:23;8.53;;;5.53;;
787;SDS011;16074;42.708;23.312;2022-10-20T15:20:52;5.50;;;5.00;;
787;SDS011;16074;42.708;23.312;2022-10-20T15:23:22;6.00;;;5.40;;
787;SDS011;16074;42.708;23.312;2022-10-20T15:25:52;6.13;;;5.67;;
787;SDS011;16074;42.708;23.312;2022-10-20T15:28:31;5.93;;;5.33;;
787;SDS011;16074;42.708;23.312;2022-10-20T15:31:03;6.47;;;5.93;;
787;SDS011;16074;42.708;23.312;2022-10-20T15:33:35;10.80;;;7.03;;
787;SDS011;16074;42.708;23.312;2022-10-20T15:36:07;6.77;;;5.70;;
787;SDS011;16074;42.708;23.312;2022-10-20T15:38:38;6.40;;;5.17;;
787;SDS011;16074;42.708;23.312;2022-10-20T15:41:07;13.60;;;6.17;;
787;SDS011;16074;42.708;23.312;2022-10-20T15:43:38;6.90;;;6.07;;
787;SDS011;16074;42.708;23.312;2022-10-20T15:46:07;6.13;;;5.73;;
787;SDS011;16074;42.708;23.312;2022-10-20T15:48:37;7.60;;;5.53;;
787;SDS011;16074;42.708;23.312;2022-10-20T15:51:07;5.97;;;5.40;;
787;SDS011;16074;42.708;23.312;2022-10-20T15:53:40;6.87;;;6.23;;
787;SDS011;16074;42.708;23.312;2022-10-20T15:56:09;8.27;;;7.57;;